Main page
METAR-TAF:

METAR-TAF

Airports :

Wake Island Airfield

Wake Island, United States

latitude: 19-17N, longitude: 166-39E, elevation: 4 m

Current weather observation

The report was made 26 minutes ago, at 10:58 UTC
Wind 7 kt from the East/Southeast
Temperature 25°C
Humidity 94%
Pressure 1014 hPa
Visibility 10 km or more
Clear sky

METAR: PWAK 191058Z AUTO 11007KT 9999 CLR 25/24 A2994 RMK AO2 SLP145 T02530236 $

Time: 23:24 (11:24 UTC)

Forecast

The report was made 5 hours and 24 minutes ago, at 06:00 UTC
Forecast valid from 19 at 06 UTC to 20 at 12 UTC
Wind 12 kt from the East/Northeast
Visibility 10 km or more
Scattered clouds at a height of 1500 ft

TAF: PWAK 190600Z 1906/2012 07012KT 9999 SCT015 QNH2984INS TX29/2001Z TN25/1910Z FOR MIL USE ONLY

Weather observations and forecasts of more than 4000 airports (METAR and TAF reports).

The available stations are represented by yellow and red dots on the map.

Hover mouse over dot to see the name of the station.

Then click to see weather observations and forecasts.

To change the map : click on the green buttons with a black cross to zoom in, on the green button with a dash to zoom out, or on the green arrows for adjacent maps.


METAR-TAF: